createdAt,value
2023-05-04T00:00:06.601Z,68.52
2023-05-04T00:02:35.013Z,68.18
2023-05-04T00:05:04.567Z,68.12
2023-05-04T00:07:32.826Z,67.81
2023-05-04T00:10:01.589Z,67.70
2023-05-04T00:12:29.962Z,67.55
2023-05-04T00:14:59.608Z,67.00
2023-05-04T00:17:27.815Z,67.08
2023-05-04T00:19:55.951Z,66.88
2023-05-04T00:22:24.292Z,66.58
2023-05-04T00:24:52.420Z,66.36
2023-05-04T00:27:20.661Z,66.38
2023-05-04T00:29:48.831Z,66.13
2023-05-04T00:32:18.877Z,65.99
2023-05-04T00:34:47.292Z,65.85
2023-05-04T00:37:15.507Z,65.67
2023-05-04T00:39:43.720Z,65.39
2023-05-04T00:42:11.967Z,65.26
2023-05-04T00:44:41.503Z,65.20
2023-05-04T00:47:10.347Z,64.67
2023-05-04T00:49:40.434Z,64.39
2023-05-04T00:52:09.430Z,64.60
2023-05-04T00:54:37.554Z,64.21
2023-05-04T00:57:07.356Z,64.17
2023-05-04T00:59:36.063Z,64.13
2023-05-04T01:02:04.317Z,63.82
2023-05-04T01:04:32.552Z,64.12
2023-05-04T01:07:11.878Z,64.08
2023-05-04T01:09:44.371Z,64.25
2023-05-04T01:12:16.909Z,64.75
2023-05-04T01:14:45.631Z,64.58
2023-05-04T01:17:14.098Z,64.29
2023-05-04T01:19:42.314Z,64.75
2023-05-04T01:22:12.093Z,64.47
2023-05-04T01:24:40.450Z,64.23
2023-05-04T01:27:17.122Z,64.41
2023-05-04T01:29:55.838Z,64.54
2023-05-04T01:32:27.671Z,64.52
2023-05-04T01:34:56.668Z,64.54
2023-05-04T01:37:27.014Z,64.54
2023-05-04T01:39:55.657Z,64.79
2023-05-04T01:42:25.227Z,64.73
2023-05-04T01:44:53.513Z,64.78
2023-05-04T01:47:21.993Z,65.01
2023-05-04T01:49:50.784Z,65.04
2023-05-04T01:52:18.983Z,64.81
2023-05-04T01:54:48.575Z,64.24
2023-05-04T01:57:17.210Z,64.04
2023-05-04T01:59:47.373Z,63.70
2023-05-04T02:02:15.657Z,63.42
2023-05-04T02:04:44.747Z,63.16
2023-05-04T02:07:13.091Z,63.02
2023-05-04T02:09:41.422Z,62.86
2023-05-04T02:12:11.144Z,62.95
2023-05-04T02:14:39.282Z,62.91
2023-05-04T02:17:08.441Z,62.96
2023-05-04T02:19:38.546Z,62.40
2023-05-04T02:22:08.074Z,62.85
2023-05-04T02:24:36.418Z,62.90
2023-05-04T02:27:04.690Z,63.02
2023-05-04T02:29:34.323Z,63.21
2023-05-04T02:32:02.606Z,63.20
2023-05-04T02:34:31.514Z,63.16
2023-05-04T02:36:59.685Z,63.32
2023-05-04T02:39:27.908Z,63.29
2023-05-04T02:41:56.024Z,63.72
2023-05-04T02:44:24.140Z,63.91
2023-05-04T02:46:53.695Z,64.10
2023-05-04T02:49:23.523Z,64.51
2023-05-04T02:51:52.341Z,65.35
2023-05-04T02:54:21.125Z,65.50
2023-05-04T02:56:49.350Z,65.73
2023-05-04T02:59:17.584Z,65.77
2023-05-04T03:01:45.710Z,65.96
2023-05-04T03:04:15.608Z,65.40
2023-05-04T03:06:43.675Z,65.70
2023-05-04T03:09:12.607Z,65.59
2023-05-04T03:11:40.704Z,65.67
2023-05-04T03:14:09.116Z,66.17
2023-05-04T03:16:37.276Z,65.69
2023-05-04T03:19:05.652Z,65.58
2023-05-04T03:21:35.397Z,65.45
2023-05-04T03:24:03.714Z,65.04
2023-05-04T03:26:32.436Z,64.93
2023-05-04T03:29:01.328Z,64.63
2023-05-04T03:31:29.772Z,64.36
2023-05-04T03:33:58.095Z,64.40
2023-05-04T03:36:26.401Z,64.37
2023-05-04T03:38:57.195Z,64.30
2023-05-04T03:41:25.592Z,64.34
2023-05-04T03:43:53.776Z,64.11
2023-05-04T03:46:22.029Z,64.11
2023-05-04T03:48:50.411Z,63.94
2023-05-04T03:51:20.129Z,63.73
2023-05-04T03:53:48.735Z,64.02
2023-05-04T03:56:20.427Z,63.84
2023-05-04T03:58:49.149Z,63.84
2023-05-04T04:01:21.681Z,63.64
2023-05-04T04:03:50.163Z,63.70
2023-05-04T04:06:20.547Z,63.79
2023-05-04T04:08:48.755Z,63.77
2023-05-04T04:11:16.880Z,63.84
2023-05-04T04:13:46.514Z,63.86
2023-05-04T04:16:14.737Z,64.01
2023-05-04T04:18:42.975Z,64.27
2023-05-04T04:21:11.321Z,64.19
2023-05-04T04:23:39.635Z,64.63
2023-05-04T04:26:07.727Z,65.15
2023-05-04T04:28:36.016Z,64.93
2023-05-04T04:31:05.627Z,65.03
2023-05-04T04:33:34.669Z,65.24
2023-05-04T04:36:02.746Z,65.04
2023-05-04T04:38:31.127Z,65.48
2023-05-04T04:40:59.233Z,65.50
2023-05-04T04:43:27.382Z,65.69
2023-05-04T04:45:55.467Z,65.90
2023-05-04T04:48:25.969Z,66.62
2023-05-04T04:50:54.084Z,67.26
2023-05-04T04:53:22.255Z,67.24
2023-05-04T04:55:50.617Z,67.25
2023-05-04T04:58:18.692Z,67.55
2023-05-04T05:00:47.775Z,68.03
2023-05-04T05:03:16.146Z,68.15
2023-05-04T05:05:45.836Z,67.98
2023-05-04T05:08:14.081Z,69.09
2023-05-04T05:10:44.012Z,68.96
2023-05-04T05:13:12.545Z,69.01
2023-05-04T05:15:40.869Z,68.81
2023-05-04T05:18:09.104Z,69.00
2023-05-04T05:20:37.647Z,68.66
2023-05-04T05:23:07.364Z,69.08
2023-05-04T05:25:35.920Z,68.81
2023-05-04T05:28:04.400Z,69.66
2023-05-04T05:30:32.727Z,70.26
2023-05-04T05:33:00.972Z,71.26
2023-05-04T05:35:29.157Z,72.35
2023-05-04T05:37:57.365Z,73.72
2023-05-04T05:40:26.867Z,73.93
2023-05-04T05:42:54.981Z,74.38
2023-05-04T05:45:23.297Z,74.19
2023-05-04T05:47:51.945Z,74.32
2023-05-04T05:50:21.073Z,75.01
2023-05-04T05:52:49.384Z,75.66
2023-05-04T05:55:17.998Z,75.07
2023-05-04T05:57:47.870Z,75.52
2023-05-04T06:00:17.458Z,75.31
2023-05-04T06:02:45.841Z,75.33
2023-05-04T06:05:14.416Z,75.57
2023-05-04T06:07:42.607Z,75.90
2023-05-04T06:10:11.472Z,76.32
2023-05-04T06:12:39.780Z,76.34
2023-05-04T06:15:10.688Z,76.50
2023-05-04T06:17:39.131Z,77.45
2023-05-04T06:20:10.429Z,77.41
2023-05-04T06:22:38.712Z,77.63
2023-05-04T06:25:08.445Z,78.21
2023-05-04T06:27:36.794Z,78.28
2023-05-04T06:30:05.735Z,78.78
2023-05-04T06:32:35.583Z,78.94
2023-05-04T06:35:04.696Z,78.75
2023-05-04T06:37:33.212Z,78.43
2023-05-04T06:40:01.464Z,77.76
2023-05-04T06:42:30.748Z,77.56
2023-05-04T06:44:59.040Z,77.52
2023-05-04T06:47:27.205Z,77.66
2023-05-04T06:49:58.017Z,78.34
2023-05-04T06:52:29.715Z,78.40
2023-05-04T06:54:58.056Z,78.72
2023-05-04T06:57:26.194Z,79.13
2023-05-04T06:59:54.434Z,79.81
2023-05-04T07:02:22.722Z,79.93
2023-05-04T07:04:52.750Z,80.50
2023-05-04T07:07:22.352Z,80.14
2023-05-04T07:09:50.547Z,80.16
2023-05-04T07:12:19.371Z,80.01
2023-05-04T07:14:47.669Z,80.19
2023-05-04T07:17:15.916Z,79.81
2023-05-04T07:19:44.557Z,80.13
2023-05-04T07:22:13.003Z,80.37
2023-05-04T07:24:42.644Z,80.14
2023-05-04T07:27:11.661Z,80.13
2023-05-04T07:29:39.861Z,80.19
2023-05-04T07:32:08.168Z,80.05
2023-05-04T07:34:45.236Z,79.55
2023-05-04T07:37:15.938Z,79.74
2023-05-04T07:39:45.632Z,79.33
2023-05-04T07:42:13.797Z,79.79
2023-05-04T07:44:42.451Z,79.63
2023-05-04T07:47:10.958Z,79.42
2023-05-04T07:49:39.130Z,78.89
2023-05-04T07:52:07.317Z,78.57
2023-05-04T07:54:36.490Z,79.02
2023-05-04T07:57:06.487Z,79.55
2023-05-04T07:59:34.703Z,80.18
2023-05-04T08:02:02.988Z,80.23
2023-05-04T08:04:31.794Z,80.34
2023-05-04T08:07:00.006Z,79.98
2023-05-04T08:09:28.380Z,80.21
2023-05-04T08:11:57.043Z,80.03
2023-05-04T08:14:27.073Z,79.99
2023-05-04T08:16:55.207Z,80.31
2023-05-04T08:19:23.788Z,80.26
2023-05-04T08:21:52.221Z,80.19
2023-05-04T08:24:20.448Z,80.85
2023-05-04T08:26:59.750Z,82.26
2023-05-04T08:29:37.432Z,82.06
2023-05-04T08:32:06.485Z,81.67
2023-05-04T08:34:34.777Z,81.55
2023-05-04T08:37:03.171Z,81.69
2023-05-04T08:39:31.434Z,80.80
2023-05-04T08:41:59.687Z,80.68
2023-05-04T08:44:27.952Z,80.75
2023-05-04T08:46:58.679Z,81.42
2023-05-04T08:49:29.286Z,81.73
2023-05-04T08:51:58.681Z,81.14
2023-05-04T08:54:29.008Z,80.45
2023-05-04T08:56:58.849Z,80.11
2023-05-04T08:59:29.084Z,79.14
2023-05-04T09:02:00.545Z,81.14
2023-05-04T09:04:29.862Z,82.43
2023-05-04T09:06:58.818Z,82.71
2023-05-04T09:09:31.446Z,83.59
2023-05-04T09:11:59.840Z,83.78
2023-05-04T09:14:33.916Z,82.95
2023-05-04T09:17:03.985Z,82.69
2023-05-04T09:19:34.891Z,82.93
2023-05-04T09:22:03.425Z,81.74
2023-05-04T09:24:31.902Z,80.98
2023-05-04T09:27:11.993Z,80.19
2023-05-04T09:29:40.909Z,80.77
2023-05-04T09:32:16.291Z,81.56
2023-05-04T09:34:51.707Z,81.67
2023-05-04T09:37:21.452Z,80.77
2023-05-04T09:39:55.265Z,80.79
2023-05-04T09:42:24.321Z,81.31
2023-05-04T09:45:03.850Z,81.23
2023-05-04T09:47:41.064Z,80.35
2023-05-04T09:50:19.775Z,80.19
2023-05-04T09:52:49.613Z,80.81
2023-05-04T09:55:19.709Z,81.16
2023-05-04T09:57:49.697Z,81.54
2023-05-04T10:00:19.373Z,81.81
2023-05-04T10:02:50.802Z,81.54
2023-05-04T10:05:21.886Z,82.11
2023-05-04T10:07:51.022Z,82.01
2023-05-04T10:10:19.222Z,83.06
2023-05-04T10:12:47.522Z,83.12
2023-05-04T10:15:17.370Z,83.36
2023-05-04T10:17:57.498Z,83.73
2023-05-04T10:20:58.504Z,84.42
2023-05-04T10:23:56.321Z,84.71
2023-05-04T10:26:59.638Z,84.15
2023-05-04T10:29:29.969Z,84.32
2023-05-04T10:31:59.615Z,84.48
2023-05-04T10:34:31.134Z,84.21
2023-05-04T10:37:00.558Z,84.99
2023-05-04T10:39:33.039Z,85.15
2023-05-04T10:42:04.168Z,85.29
2023-05-04T10:44:34.337Z,84.99
2023-05-04T10:47:05.604Z,84.76
2023-05-04T10:49:36.084Z,84.68
2023-05-04T10:52:16.089Z,85.05
2023-05-04T10:54:44.574Z,85.25
2023-05-04T10:57:17.538Z,85.51
2023-05-04T10:59:57.136Z,85.60
2023-05-04T11:02:25.937Z,85.57
2023-05-04T11:05:04.509Z,85.44
2023-05-04T11:07:37.891Z,85.18
2023-05-04T11:10:08.417Z,84.72
2023-05-04T11:12:38.999Z,84.72
2023-05-04T11:15:08.946Z,84.83
2023-05-04T11:17:46.732Z,84.50
2023-05-04T11:20:23.572Z,84.69
2023-05-04T11:22:52.361Z,84.58
2023-05-04T11:25:28.850Z,84.67
2023-05-04T11:27:58.246Z,85.30
2023-05-04T11:30:33.533Z,84.57
2023-05-04T11:33:02.409Z,84.87
2023-05-04T11:35:32.489Z,84.95
2023-05-04T11:38:00.957Z,84.87
2023-05-04T11:40:29.423Z,84.69
2023-05-04T11:42:59.226Z,84.16
2023-05-04T11:45:32.624Z,84.23
2023-05-04T11:48:01.999Z,84.41
2023-05-04T11:50:32.765Z,84.49
2023-05-04T11:53:09.407Z,84.78
2023-05-04T11:55:38.751Z,84.82
2023-05-04T11:58:08.812Z,85.18
2023-05-04T12:00:39.503Z,85.39
2023-05-04T12:03:09.458Z,86.12
2023-05-04T12:05:39.202Z,86.33
2023-05-04T12:08:12.503Z,86.36
2023-05-04T12:10:41.589Z,86.57
2023-05-04T12:13:17.669Z,86.13
2023-05-04T12:15:46.160Z,85.96
2023-05-04T12:18:29.581Z,85.41
2023-05-04T12:21:09.183Z,85.82
2023-05-04T12:23:37.763Z,86.03
2023-05-04T12:26:06.175Z,86.07
2023-05-04T12:28:34.935Z,85.63
2023-05-04T12:31:04.859Z,85.98
2023-05-04T12:33:33.092Z,86.08
2023-05-04T12:36:04.704Z,86.24
2023-05-04T12:38:33.973Z,86.18
2023-05-04T12:41:04.530Z,85.78
2023-05-04T12:43:33.548Z,85.31
2023-05-04T12:46:02.193Z,85.17
2023-05-04T12:48:33.076Z,84.53
2023-05-04T12:51:04.335Z,84.17
2023-05-04T12:53:33.122Z,84.72
2023-05-04T12:56:02.200Z,84.98
2023-05-04T12:58:31.312Z,85.43
2023-05-04T13:00:59.956Z,85.24
2023-05-04T13:03:28.628Z,85.42
2023-05-04T13:05:58.170Z,84.95
2023-05-04T13:08:27.784Z,84.62
2023-05-04T13:10:55.972Z,84.66
2023-05-04T13:13:28.596Z,84.68
2023-05-04T13:15:57.326Z,83.95
2023-05-04T13:18:27.545Z,83.10
2023-05-04T13:20:56.137Z,82.92
2023-05-04T13:23:24.394Z,83.17
2023-05-04T13:25:54.316Z,83.47
2023-05-04T13:28:22.422Z,83.63
2023-05-04T13:30:50.724Z,83.72
2023-05-04T13:33:29.460Z,83.45
2023-05-04T13:35:59.198Z,83.45
2023-05-04T13:38:27.504Z,83.25
2023-05-04T13:40:57.135Z,82.82
2023-05-04T13:43:25.704Z,82.95
2023-05-04T13:45:53.899Z,82.35
2023-05-04T13:48:22.194Z,81.47
2023-05-04T13:50:50.317Z,81.37
2023-05-04T13:53:18.510Z,81.03
2023-05-04T13:55:46.765Z,80.33
2023-05-04T13:58:16.347Z,80.60
2023-05-04T14:00:44.492Z,80.64
2023-05-04T14:03:13.101Z,80.17
2023-05-04T14:05:41.707Z,80.09
2023-05-04T14:08:09.839Z,79.50
2023-05-04T14:10:38.674Z,78.95
2023-05-04T14:13:07.066Z,78.21
2023-05-04T14:15:36.765Z,78.17
2023-05-04T14:18:05.218Z,77.27
2023-05-04T14:20:33.415Z,77.42
2023-05-04T14:23:01.624Z,76.64
2023-05-04T14:25:29.775Z,76.11
2023-05-04T14:27:57.963Z,75.21
2023-05-04T14:30:26.633Z,74.87
2023-05-04T14:32:56.906Z,75.48
2023-05-04T14:35:25.672Z,75.74
2023-05-04T14:37:53.807Z,75.72
2023-05-04T14:40:21.985Z,75.85
2023-05-04T14:42:50.160Z,74.85
2023-05-04T14:45:18.631Z,74.30
2023-05-04T14:47:47.369Z,73.81
2023-05-04T14:50:16.923Z,73.74
2023-05-04T14:52:45.128Z,73.36
2023-05-04T14:55:13.399Z,72.01
2023-05-04T14:57:44.103Z,71.84
2023-05-04T15:00:13.607Z,70.35
2023-05-04T15:02:41.781Z,71.03
2023-05-04T15:05:12.775Z,71.48
2023-05-04T15:07:42.392Z,69.29
2023-05-04T15:10:11.325Z,69.71
2023-05-04T15:12:39.664Z,68.38
2023-05-04T15:15:08.885Z,67.81
2023-05-04T15:17:37.024Z,67.14
2023-05-04T15:20:05.885Z,67.92
2023-05-04T15:22:34.194Z,68.47
2023-05-04T15:25:04.208Z,69.34
2023-05-04T15:27:32.354Z,69.59
2023-05-04T15:30:00.611Z,70.56
2023-05-04T15:32:29.198Z,70.62
2023-05-04T15:35:05.326Z,70.69
2023-05-04T15:37:34.534Z,71.41
2023-05-04T15:40:04.889Z,70.96
2023-05-04T15:42:33.395Z,70.98
2023-05-04T15:45:02.070Z,69.98
2023-05-04T15:47:32.074Z,69.86
2023-05-04T15:50:00.499Z,70.31
2023-05-04T15:52:28.833Z,69.58
2023-05-04T15:54:57.450Z,69.91
2023-05-04T15:57:27.429Z,69.72
2023-05-04T15:59:55.942Z,70.37
2023-05-04T16:02:24.296Z,71.52
2023-05-04T16:04:52.697Z,71.91
2023-05-04T16:07:21.060Z,71.90
2023-05-04T16:09:49.314Z,71.94
2023-05-04T16:12:18.367Z,72.00
2023-05-04T16:14:49.336Z,71.58
2023-05-04T16:17:17.662Z,72.22
2023-05-04T16:19:45.973Z,72.61
2023-05-04T16:22:14.814Z,72.91
2023-05-04T16:24:43.061Z,73.59
2023-05-04T16:27:11.252Z,73.90
2023-05-04T16:29:39.445Z,73.60
2023-05-04T16:32:09.554Z,73.85
2023-05-04T16:34:38.390Z,73.95
2023-05-04T16:37:08.378Z,74.14
2023-05-04T16:39:38.153Z,74.83
2023-05-04T16:42:06.713Z,75.04
2023-05-04T16:44:34.838Z,74.72
2023-05-04T16:47:03.354Z,75.68
2023-05-04T16:49:32.945Z,76.47
2023-05-04T16:52:01.174Z,76.70
2023-05-04T16:54:29.287Z,76.99
2023-05-04T16:56:57.443Z,77.43
2023-05-04T16:59:25.760Z,77.93
2023-05-04T17:01:54.088Z,77.76
2023-05-04T17:04:22.407Z,78.29
2023-05-04T17:06:51.990Z,78.50
2023-05-04T17:09:20.143Z,78.31
2023-05-04T17:11:48.378Z,78.19
2023-05-04T17:14:16.871Z,78.46
2023-05-04T17:16:45.527Z,79.06
2023-05-04T17:19:14.287Z,79.17
2023-05-04T17:21:42.633Z,78.76
2023-05-04T17:24:12.646Z,78.25
2023-05-04T17:26:40.824Z,78.55
2023-05-04T17:29:09.054Z,78.61
2023-05-04T17:31:37.434Z,78.56
2023-05-04T17:34:05.819Z,78.87
2023-05-04T17:36:34.081Z,78.65
2023-05-04T17:39:02.226Z,78.81
2023-05-04T17:41:31.914Z,79.22
2023-05-04T17:44:00.129Z,79.57
2023-05-04T17:46:28.619Z,79.71
2023-05-04T17:48:56.784Z,79.81
2023-05-04T17:51:25.097Z,79.55
2023-05-04T17:53:53.322Z,79.88
2023-05-04T17:56:22.018Z,79.91
2023-05-04T17:58:51.642Z,80.45
2023-05-04T18:01:19.855Z,80.38
2023-05-04T18:03:48.146Z,80.46
2023-05-04T18:06:16.770Z,80.57
2023-05-04T18:08:45.000Z,80.56
2023-05-04T18:11:13.599Z,80.22
2023-05-04T18:13:42.124Z,80.17
2023-05-04T18:16:11.807Z,80.04
2023-05-04T18:18:40.710Z,80.78
2023-05-04T18:21:08.929Z,81.16
2023-05-04T18:23:37.150Z,81.10
2023-05-04T18:26:05.411Z,80.71
2023-05-04T18:28:33.519Z,80.79
2023-05-04T18:31:01.976Z,80.95
2023-05-04T18:33:31.642Z,80.39
2023-05-04T18:35:59.873Z,80.43
2023-05-04T18:38:28.568Z,80.52
2023-05-04T18:40:56.822Z,80.66
2023-05-04T18:43:25.104Z,80.67
2023-05-04T18:45:53.341Z,80.66
2023-05-04T18:48:22.090Z,80.99
2023-05-04T18:50:57.486Z,80.87
2023-05-04T18:53:26.484Z,81.05
2023-05-04T18:56:02.647Z,81.38
2023-05-04T18:58:31.213Z,81.47
2023-05-04T19:00:59.787Z,81.25
2023-05-04T19:03:28.310Z,81.92
2023-05-04T19:05:58.073Z,82.00
2023-05-04T19:08:26.546Z,82.35
2023-05-04T19:10:59.289Z,82.48
2023-05-04T19:13:27.614Z,83.23
2023-05-04T19:15:55.846Z,83.58
2023-05-04T19:18:24.788Z,84.10
2023-05-04T19:20:53.146Z,83.51
2023-05-04T19:23:23.104Z,83.67
2023-05-04T19:25:51.250Z,83.96
2023-05-04T19:28:19.889Z,84.25
2023-05-04T19:30:49.100Z,84.41
2023-05-04T19:33:17.902Z,83.86
2023-05-04T19:35:46.924Z,84.09
2023-05-04T19:38:15.155Z,83.84
2023-05-04T19:40:44.779Z,83.98
2023-05-04T19:43:12.966Z,84.10
2023-05-04T19:45:41.011Z,83.79
2023-05-04T19:48:10.219Z,83.85
2023-05-04T19:50:38.636Z,83.58
2023-05-04T19:53:06.788Z,83.74
2023-05-04T19:55:35.215Z,83.33
2023-05-04T19:58:05.221Z,83.03
2023-05-04T20:00:33.768Z,83.49
2023-05-04T20:03:01.997Z,83.31
2023-05-04T20:05:30.229Z,83.31
2023-05-04T20:07:58.523Z,83.39
2023-05-04T20:10:26.936Z,83.37
2023-05-04T20:12:55.087Z,83.63
2023-05-04T20:15:24.593Z,83.74
2023-05-04T20:17:52.829Z,83.66
2023-05-04T20:20:22.107Z,83.65
2023-05-04T20:22:52.451Z,83.70
2023-05-04T20:25:21.030Z,83.84
2023-05-04T20:27:52.227Z,83.67
2023-05-04T20:30:20.403Z,83.92
2023-05-04T20:32:50.559Z,84.37
2023-05-04T20:35:18.961Z,84.13
2023-05-04T20:37:47.883Z,83.86
2023-05-04T20:40:17.245Z,84.38
2023-05-04T20:42:45.751Z,84.27
2023-05-04T20:45:14.065Z,84.14
2023-05-04T20:47:42.783Z,84.49
2023-05-04T20:50:12.705Z,84.31
2023-05-04T20:52:40.809Z,84.21
2023-05-04T20:55:09.745Z,84.11
2023-05-04T20:57:38.290Z,84.29
2023-05-04T21:00:08.128Z,84.13
2023-05-04T21:02:37.285Z,84.15
2023-05-04T21:05:06.465Z,83.91
2023-05-04T21:07:36.455Z,84.07
2023-05-04T21:10:05.180Z,83.97
2023-05-04T21:12:33.572Z,84.64
2023-05-04T21:15:01.703Z,84.23
2023-05-04T21:17:29.842Z,84.24
2023-05-04T21:19:57.949Z,84.79
2023-05-04T21:22:26.256Z,84.33
2023-05-04T21:24:55.833Z,83.99
2023-05-04T21:27:24.050Z,83.97
2023-05-04T21:29:52.137Z,83.91
2023-05-04T21:32:20.927Z,83.96
2023-05-04T21:34:53.230Z,83.68
2023-05-04T21:37:21.258Z,84.08
2023-05-04T21:39:53.795Z,84.21
2023-05-04T21:42:23.885Z,83.83
2023-05-04T21:44:55.172Z,84.21
2023-05-04T21:47:23.432Z,84.01
2023-05-04T21:49:52.148Z,84.09
2023-05-04T21:52:20.678Z,83.38
2023-05-04T21:54:48.872Z,84.12
2023-05-04T21:57:17.548Z,83.83
2023-05-04T21:59:49.616Z,84.19
2023-05-04T22:02:18.001Z,84.62
2023-05-04T22:04:46.166Z,84.61
2023-05-04T22:07:15.620Z,84.51
2023-05-04T22:09:44.010Z,84.64
2023-05-04T22:12:12.150Z,84.49
2023-05-04T22:14:42.187Z,84.60
2023-05-04T22:17:12.174Z,84.53
2023-05-04T22:19:40.671Z,84.66
2023-05-04T22:22:08.846Z,85.14
2023-05-04T22:24:36.927Z,85.10
2023-05-04T22:27:05.197Z,84.67
2023-05-04T22:29:35.280Z,84.45
2023-05-04T22:32:03.787Z,84.39
2023-05-04T22:34:33.348Z,84.50
2023-05-04T22:37:03.245Z,84.31
2023-05-04T22:39:31.898Z,84.56
2023-05-04T22:41:59.961Z,85.10
2023-05-04T22:44:28.184Z,84.91
2023-05-04T22:46:56.311Z,84.99
2023-05-04T22:49:24.540Z,85.14
2023-05-04T22:51:54.264Z,85.34
2023-05-04T22:54:22.620Z,84.85
2023-05-04T22:56:51.083Z,84.91
2023-05-04T22:59:19.277Z,85.00
2023-05-04T23:01:47.750Z,85.08
2023-05-04T23:04:16.492Z,85.26
2023-05-04T23:06:44.981Z,84.98
2023-05-04T23:09:15.321Z,84.60
2023-05-04T23:11:43.882Z,84.28
2023-05-04T23:14:13.055Z,83.98
2023-05-04T23:16:41.209Z,84.48
2023-05-04T23:19:10.061Z,84.91
2023-05-04T23:21:39.699Z,85.02
2023-05-04T23:24:08.107Z,84.69
2023-05-04T23:26:37.698Z,84.26
2023-05-04T23:29:05.867Z,84.50
2023-05-04T23:31:34.176Z,84.72
2023-05-04T23:34:02.861Z,84.75
2023-05-04T23:36:31.011Z,84.69
2023-05-04T23:38:59.279Z,84.78
2023-05-04T23:41:27.484Z,85.07
2023-05-04T23:43:59.447Z,85.27
2023-05-04T23:46:27.794Z,85.60
2023-05-04T23:48:56.182Z,85.83
2023-05-04T23:51:24.276Z,85.51
2023-05-04T23:53:53.229Z,85.69
2023-05-04T23:56:21.781Z,85.58
2023-05-04T23:58:50.016Z,85.64
